Time;durP1;ratioP1;P1;durP2;ratioP2;P2;SDS_P1;SDS_P2;PMS_P1;PMS_P2;Temp;Humidity;BMP_temperature;BMP_pressure;BME280_temperature;BME280_humidity;BME280_pressure;Samples;Min_cycle;Max_cycle;Signal;HPM_P1;HPM_P2
2021/08/27 00:02:07;;;;;;;22.77;18.10;;;;;;;19.42;89.05;100233.77;1789755;79;20915;-72
2021/08/27 00:04:34;;;;;;;21.77;18.60;;;;;;;19.41;89.08;100224.14;1789656;80;20963;-72
2021/08/27 00:07:01;;;;;;;26.37;21.02;;;;;;;19.41;89.06;100229.46;1790022;80;20872;-71
2021/08/27 00:09:28;;;;;;;20.20;18.10;;;;;;;19.39;89.09;100231.45;1789692;80;20914;-71
2021/08/27 00:11:55;;;;;;;20.72;18.20;;;;;;;19.36;89.01;100234.41;1789956;80;21436;-73
2021/08/27 00:14:25;;;;;;;20.02;18.00;;;;;;;19.32;88.84;100245.87;1789633;80;21425;-71
2021/08/27 00:16:53;;;;;;;20.97;18.75;;;;;;;19.28;88.82;100248.50;1789962;80;21281;-71
2021/08/27 00:19:19;;;;;;;22.77;19.27;;;;;;;19.25;88.86;100247.47;1789546;80;20919;-71
2021/08/27 00:21:46;;;;;;;22.07;19.75;;;;;;;19.22;88.92;100259.25;1789841;80;20832;-71
2021/08/27 00:24:13;;;;;;;22.73;19.42;;;;;;;19.19;88.99;100259.58;1787110;78;21738;-72
2021/08/27 00:26:40;;;;;;;21.50;18.92;;;;;;;19.16;89.08;100267.84;1786784;80;20911;-72
2021/08/27 00:29:07;;;;;;;23.12;19.17;;;;;;;19.14;89.08;100271.19;1786568;79;20947;-71
2021/08/27 00:31:35;;;;;;;22.22;19.87;;;;;;;19.11;89.24;100270.66;1786479;79;21475;-71
2021/08/27 00:34:02;;;;;;;22.93;19.25;;;;;;;19.10;89.36;100283.59;1786569;80;20911;-72
2021/08/27 00:36:29;;;;;;;20.23;17.73;;;;;;;19.09;89.50;100285.92;1786562;80;21140;-71
2021/08/27 00:38:56;;;;;;;22.10;19.00;;;;;;;19.06;89.64;100285.74;1786572;80;20919;-71
2021/08/27 00:41:23;;;;;;;22.50;19.48;;;;;;;19.06;89.75;100292.39;1786789;80;20949;-71
2021/08/27 00:43:50;;;;;;;25.23;20.15;;;;;;;19.03;89.80;100285.56;1786505;80;20872;-71
2021/08/27 00:46:17;;;;;;;21.62;19.12;;;;;;;19.04;89.91;100285.06;1786630;79;20974;-70
2021/08/27 00:48:44;;;;;;;25.10;22.50;;;;;;;19.02;89.97;100274.58;1786492;80;21720;-71
2021/08/27 00:51:11;;;;;;;23.83;21.20;;;;;;;19.02;90.04;100273.25;1786367;80;20906;-72
2021/08/27 00:53:38;;;;;;;26.05;23.25;;;;;;;19.01;90.12;100274.25;1786592;80;20848;-70
2021/08/27 00:56:07;;;;;;;27.30;22.27;;;;;;;19.02;90.15;100279.06;1786409;80;20896;-72
2021/08/27 00:58:33;;;;;;;31.02;23.40;;;;;;;19.01;90.21;100274.75;1786494;79;20872;-70
2021/08/27 01:01:02;;;;;;;24.80;22.15;;;;;;;19.01;90.26;100272.09;1786626;80;21865;-71
2021/08/27 01:03:30;;;;;;;26.23;23.52;;;;;;;19.01;90.35;100273.42;1786545;80;21333;-72
2021/08/27 01:06:05;;;;;;;28.12;24.00;;;;;;;19.00;90.43;100271.73;1786884;80;20962;-72
2021/08/27 01:08:53;;;;;;;29.07;25.95;;;;;;;19.01;90.50;100282.72;1786475;79;20939;-71
2021/08/27 01:11:34;;;;;;;30.17;23.65;;;;;;;19.01;90.50;100288.05;1786171;80;20864;-73
2021/08/27 01:14:07;;;;;;;27.82;24.92;;;;;;;19.01;90.57;100288.05;1780437;80;21139;-71
2021/08/27 01:17:02;;;;;;;29.23;25.17;;;;;;;19.00;90.61;100291.67;1786934;80;21026;-71
2021/08/27 01:19:51;;;;;;;32.25;26.85;;;;;;;19.01;90.73;100292.86;1786733;80;20919;-71
2021/08/27 01:22:53;;;;;;;28.62;25.50;;;;;;;19.01;90.76;100296.02;1786793;80;21353;-70
2021/08/27 01:25:21;;;;;;;27.95;22.75;;;;;;;19.01;90.72;100292.03;1786519;80;20915;-71
2021/08/27 01:27:50;;;;;;;29.42;24.10;;;;;;;18.99;90.64;100296.16;1786501;79;21353;-72
2021/08/27 01:30:28;;;;;;;25.57;22.75;;;;;;;19.00;90.54;100311.10;1786482;80;20908;-72
2021/08/27 01:33:12;;;;;;;28.02;21.73;;;;;;;18.98;90.48;100302.95;1784654;80;20872;-72
2021/08/27 01:35:39;;;;;;;28.25;23.00;;;;;;;18.98;90.61;100295.80;1786627;80;20930;-71
2021/08/27 01:38:08;;;;;;;25.77;22.25;;;;;;;18.99;90.71;100303.30;1786471;79;20966;-71
2021/08/27 01:40:37;;;;;;;22.58;20.12;;;;;;;18.98;90.69;100297.63;1786420;80;21779;-71
2021/08/27 01:43:07;;;;;;;24.55;20.88;;;;;;;18.99;90.73;100300.14;1786387;80;21391;-71
2021/08/27 01:45:34;;;;;;;24.92;20.08;;;;;;;18.99;90.64;100294.83;1786553;80;20983;-70
2021/08/27 01:48:04;;;;;;;24.77;22.25;;;;;;;19.00;90.77;100289.02;1757948;80;20833;-71
2021/08/27 01:50:30;;;;;;;24.95;22.45;;;;;;;19.01;90.84;100290.70;1786564;79;20888;-71
2021/08/27 01:52:57;;;;;;;29.65;22.70;;;;;;;19.02;90.81;100300.33;1786609;80;21502;-72
2021/08/27 01:55:24;;;;;;;24.75;21.95;;;;;;;19.02;90.65;100302.98;1786746;80;20986;-71
2021/08/27 01:57:50;;;;;;;27.05;22.30;;;;;;;19.01;90.62;100304.81;1757897;80;20923;-71
2021/08/27 02:00:18;;;;;;;24.35;21.27;;;;;;;19.01;90.66;100297.34;1786532;80;21398;-71
2021/08/27 02:02:44;;;;;;;27.25;23.07;;;;;;;18.99;90.65;100309.45;1786388;79;21346;-71
2021/08/27 02:05:11;;;;;;;26.50;23.45;;;;;;;18.99;90.54;100305.96;1786492;79;21749;-71
2021/08/27 02:07:38;;;;;;;28.62;23.02;;;;;;;18.98;90.53;100298.95;1786400;79;20915;-71
2021/08/27 02:10:06;;;;;;;25.30;22.37;;;;;;;18.96;90.61;100297.78;1786575;80;20927;-70
2021/08/27 02:12:33;;;;;;;35.52;23.83;;;;;;;18.96;90.66;100295.12;1786355;80;20986;-70
2021/08/27 02:15:00;;;;;;;27.85;23.18;;;;;;;18.96;90.71;100296.95;1786407;80;21376;-71
2021/08/27 02:17:27;;;;;;;25.82;23.27;;;;;;;18.96;90.75;100292.97;1786500;79;21181;-71
2021/08/27 02:19:54;;;;;;;24.70;21.82;;;;;;;18.96;90.77;100290.30;1786375;80;20954;-71
2021/08/27 02:22:23;;;;;;;24.67;22.20;;;;;;;18.96;90.71;100297.78;1786490;80;20922;-70
2021/08/27 02:25:06;;;;;;;24.72;22.07;;;;;;;18.96;90.68;100299.11;1786311;79;21460;-70
2021/08/27 02:27:34;;;;;;;27.48;24.47;;;;;;;18.95;90.82;100294.80;1786526;80;20935;-70
2021/08/27 02:30:01;;;;;;;26.45;23.60;;;;;;;18.95;90.84;100302.77;1786425;79;21113;-71
2021/08/27 02:32:28;;;;;;;26.95;24.00;;;;;;;18.95;90.79;100304.59;1786334;79;20829;-71
2021/08/27 02:35:00;;;;;;;32.70;28.32;;;;;;;18.95;90.84;100300.11;1786567;80;20916;-71
2021/08/27 02:37:25;;;;;;;27.90;24.65;;;;;;;18.94;90.77;100300.25;1786286;80;20955;-71
2021/08/27 02:39:51;;;;;;;26.85;22.90;;;;;;;18.94;90.79;100302.91;1786485;80;20817;-71
2021/08/27 02:42:19;;;;;;;25.05;22.52;;;;;;;18.92;90.72;100303.55;1786566;80;21124;-71
2021/08/27 02:44:46;;;;;;;26.15;21.52;;;;;;;18.89;90.69;100307.36;1758342;80;21493;-71
2021/08/27 02:47:13;;;;;;;32.67;26.68;;;;;;;18.86;90.80;100311.66;1786644;79;20872;-71
2021/08/27 02:49:40;;;;;;;28.47;25.57;;;;;;;18.84;90.85;100320.28;1786585;80;20828;-71
2021/08/27 02:52:28;;;;;;;30.27;23.92;;;;;;;18.81;90.85;100318.77;1758387;80;21556;-72
2021/08/27 02:55:03;;;;;;;25.35;22.77;;;;;;;18.81;90.89;100324.58;1786732;80;22179;-73
2021/08/27 02:57:52;;;;;;;28.52;25.48;;;;;;;18.79;90.96;100326.05;1784832;80;20848;-71
2021/08/27 03:00:19;;;;;;;35.60;29.50;;;;;;;18.78;90.96;100326.20;1778389;80;20875;-71
2021/08/27 03:02:47;;;;;;;33.88;29.95;;;;;;;18.75;91.01;100327.31;1758877;80;20955;-71
2021/08/27 03:05:21;;;;;;;31.82;27.93;;;;;;;18.73;90.97;100320.48;1786767;80;20900;-72
2021/08/27 03:07:54;;;;;;;31.42;27.67;;;;;;;18.73;90.92;100323.14;1786345;80;21746;-70
2021/08/27 03:10:29;;;;;;;;;;;;;;;18.70;90.84;100318.97;1789187;79;20864;-71
2021/08/27 03:13:10;;;;;;;32.28;27.77;;;;;;;18.68;90.77;100328.91;1786361;80;20102;-70
2021/08/27 03:15:51;;;;;;;33.28;29.80;;;;;;;18.68;90.73;100332.07;1786571;80;20880;-71
2021/08/27 03:18:59;;;;;;;35.60;30.52;;;;;;;18.65;90.68;100339.81;1786985;80;20872;-71
2021/08/27 03:21:49;;;;;;;35.75;29.12;;;;;;;18.63;90.71;100337.80;1786546;80;21693;-71
2021/08/27 03:24:35;;;;;;;42.23;36.77;;;;;;;18.62;90.77;100336.98;1755617;80;20912;-72
2021/08/27 03:27:18;;;;;;;31.60;28.30;;;;;;;18.61;90.80;100347.27;1780067;80;20903;-71
2021/08/27 03:29:48;;;;;;;33.38;29.72;;;;;;;18.60;90.90;100351.40;1780708;80;20951;-69
2021/08/27 03:32:16;;;;;;;32.85;28.85;;;;;;;18.58;91.02;100350.21;1751311;80;21474;-71
2021/08/27 03:34:44;;;;;;;34.35;30.62;;;;;;;18.58;91.10;100350.21;1780944;80;21147;-71
2021/08/27 03:37:11;;;;;;;36.10;30.77;;;;;;;18.58;91.07;100353.37;1780856;80;20900;-70
2021/08/27 03:39:37;;;;;;;40.48;32.80;;;;;;;18.59;91.00;100351.07;1781068;80;20939;-70
2021/08/27 03:42:06;;;;;;;37.93;31.05;;;;;;;18.59;90.87;100351.91;1780760;80;20880;-72
2021/08/27 03:44:34;;;;;;;38.13;29.65;;;;;;;18.59;90.75;100357.71;1781075;80;20937;-72
2021/08/27 03:47:01;;;;;;;38.42;29.60;;;;;;;18.60;90.78;100362.85;1780752;80;21162;-72
2021/08/27 03:49:29;;;;;;;35.78;28.47;;;;;;;18.62;90.78;100367.52;1780762;80;20915;-71
2021/08/27 03:51:56;;;;;;;32.80;28.17;;;;;;;18.64;90.86;100366.88;1780866;79;20959;-69
2021/08/27 03:54:24;;;;;;;36.42;28.62;;;;;;;18.68;90.83;100371.91;1780621;79;20903;-69
2021/08/27 03:56:51;;;;;;;37.03;29.65;;;;;;;18.70;90.74;100373.90;1780741;80;20887;-71
2021/08/27 03:59:19;;;;;;;35.00;28.87;;;;;;;18.75;90.75;100374.30;1780755;80;21082;-71
2021/08/27 04:01:46;;;;;;;33.65;28.30;;;;;;;18.78;90.64;100383.31;1780694;80;21014;-69
2021/08/27 04:04:19;;;;;;;36.90;28.70;;;;;;;18.84;90.60;100385.38;1780826;80;20951;-68
2021/08/27 04:07:00;;;;;;;30.15;23.70;;;;;;;18.88;90.54;100388.08;1780724;80;20943;-70
2021/08/27 04:09:28;;;;;;;31.62;27.05;;;;;;;18.94;90.26;100390.14;1781093;80;20967;-69
2021/08/27 04:11:55;;;;;;;27.90;24.37;;;;;;;18.99;90.07;100392.33;1780780;80;21525;-69
2021/08/27 04:14:22;;;;;;;32.63;26.73;;;;;;;19.04;89.85;100392.20;1781001;80;20848;-69
2021/08/27 04:16:49;;;;;;;34.15;26.77;;;;;;;19.09;89.57;100393.57;1780854;80;21377;-71
2021/08/27 04:19:16;;;;;;;34.48;26.82;;;;;;;19.12;89.33;100396.77;1780802;79;20982;-73
2021/08/27 04:21:43;;;;;;;30.55;26.57;;;;;;;19.16;89.15;100399.44;1780839;80;20840;-72
2021/08/27 04:24:10;;;;;;;36.30;29.25;;;;;;;19.20;88.98;100398.65;1781786;79;21800;-73
2021/08/27 04:26:38;;;;;;;35.68;29.57;;;;;;;19.24;88.83;100404.00;1786489;80;21449;-72
2021/08/27 04:29:05;;;;;;;37.83;31.00;;;;;;;19.26;88.71;100405.52;1786649;80;20876;-72
2021/08/27 04:31:34;;;;;;;36.17;29.87;;;;;;;19.30;88.64;100403.87;1786499;80;20923;-72
2021/08/27 04:34:01;;;;;;;41.88;31.07;;;;;;;19.33;88.56;100403.08;1786794;80;20958;-73
2021/08/27 04:36:27;;;;;;;36.10;29.95;;;;;;;19.39;88.48;100407.78;1786728;79;21107;-73
2021/08/27 04:38:54;;;;;;;37.42;30.35;;;;;;;19.46;88.39;100411.99;1786860;80;20939;-73
2021/08/27 04:41:21;;;;;;;35.58;30.60;;;;;;;19.54;88.34;100413.39;1786589;79;20946;-74
2021/08/27 04:43:50;;;;;;;37.08;31.12;;;;;;;19.64;88.22;100416.77;1786493;80;20884;-73
2021/08/27 04:46:17;;;;;;;36.75;28.50;;;;;;;19.76;88.05;100416.54;1786513;80;20868;-71
2021/08/27 04:48:44;;;;;;;34.98;30.82;;;;;;;19.86;87.54;100415.95;1786534;80;21983;-71
2021/08/27 04:51:12;;;;;;;37.63;32.05;;;;;;;19.95;87.16;100418.16;1786392;80;20828;-72
2021/08/27 04:53:38;;;;;;;34.65;30.80;;;;;;;19.98;86.90;100413.34;1786525;80;21389;-73
2021/08/27 04:56:06;;;;;;;40.78;32.33;;;;;;;20.01;86.86;100409.05;1786449;80;20958;-72
2021/08/27 04:58:33;;;;;;;38.80;33.78;;;;;;;20.04;86.67;100418.03;1786571;80;20911;-72
2021/08/27 05:01:02;;;;;;;38.20;32.53;;;;;;;20.05;86.48;100422.38;1786599;80;21521;-74
2021/08/27 05:03:29;;;;;;;44.83;34.70;;;;;;;20.08;86.26;100418.56;1786513;79;20864;-72
2021/08/27 05:05:56;;;;;;;41.33;33.45;;;;;;;20.14;86.23;100415.24;1786377;80;20880;-70
2021/08/27 05:08:23;;;;;;;37.75;32.15;;;;;;;20.22;86.15;100413.13;1786345;80;20915;-71
2021/08/27 05:10:51;;;;;;;37.98;32.17;;;;;;;20.34;85.41;100426.98;1786451;79;20918;-71
2021/08/27 05:13:17;;;;;;;39.58;34.20;;;;;;;20.47;84.74;100414.88;1786842;79;21477;-70
2021/08/27 05:15:45;;;;;;;39.35;32.85;;;;;;;20.60;84.23;100417.63;1786428;80;21521;-71
2021/08/27 05:18:12;;;;;;;38.23;34.13;;;;;;;20.74;83.84;100432.14;1786437;80;20864;-71
2021/08/27 05:20:39;;;;;;;34.30;30.48;;;;;;;20.81;83.27;100435.81;1786322;79;21408;-74
2021/08/27 05:23:06;;;;;;;33.73;30.10;;;;;;;20.94;82.73;100435.35;1786781;80;20907;-75
2021/08/27 05:25:32;;;;;;;32.53;29.25;;;;;;;21.16;82.71;100441.88;1783150;80;21721;-75
2021/08/27 05:27:59;;;;;;;33.73;29.35;;;;;;;21.42;81.51;100438.59;1780933;80;20861;-75
2021/08/27 05:30:26;;;;;;;35.68;29.72;;;;;;;21.62;80.23;100443.59;1780800;80;20936;-74
2021/08/27 05:32:54;;;;;;;34.35;29.52;;;;;;;21.83;79.47;100451.91;1780952;79;20915;-75
2021/08/27 05:35:22;;;;;;;31.20;27.95;;;;;;;22.00;78.54;100453.20;1780395;79;20931;-75
2021/08/27 05:37:49;;;;;;;30.55;26.77;;;;;;;22.09;77.80;100468.20;1780582;79;21090;-73
2021/08/27 05:40:16;;;;;;;31.90;28.42;;;;;;;22.14;76.65;100468.03;1780677;80;20951;-73
2021/08/27 05:42:43;;;;;;;34.38;30.92;;;;;;;22.13;76.39;100467.68;1781185;80;20920;-74
2021/08/27 05:45:11;;;;;;;34.27;28.65;;;;;;;22.10;76.21;100469.88;1780699;80;21397;-72
2021/08/27 05:47:38;;;;;;;33.60;30.08;;;;;;;22.03;76.34;100460.38;1780764;80;20907;-71
2021/08/27 05:50:06;;;;;;;35.33;31.55;;;;;;;21.91;76.53;100465.22;1780769;80;21126;-73
2021/08/27 05:52:32;;;;;;;36.65;31.33;;;;;;;21.81;76.55;100470.41;1780626;80;20840;-80
2021/08/27 05:54:59;;;;;;;34.98;31.17;;;;;;;21.65;76.57;100469.42;1780688;80;20959;-80
2021/08/27 05:57:26;;;;;;;35.98;32.10;;;;;;;21.51;76.91;100480.27;1780739;79;20899;-80
2021/08/27 05:59:53;;;;;;;37.88;33.88;;;;;;;21.42;77.21;100483.12;1780855;80;20879;-80
2021/08/27 06:02:20;;;;;;;37.73;33.55;;;;;;;21.32;77.49;100483.23;1780769;79;21097;-79
2021/08/27 06:04:47;;;;;;;37.13;33.23;;;;;;;21.24;77.69;100488.58;1780792;80;20955;-80
2021/08/27 06:07:14;;;;;;;37.15;33.15;;;;;;;21.16;77.86;100484.55;1781088;80;21033;-79
2021/08/27 06:09:42;;;;;;;38.42;33.35;;;;;;;21.09;77.93;100495.87;1780745;79;20876;-80
2021/08/27 06:12:10;;;;;;;38.98;34.00;;;;;;;21.01;78.07;100493.20;1780708;80;20868;-80
2021/08/27 06:14:37;;;;;;;35.58;31.77;;;;;;;20.94;78.24;100498.83;1780908;80;21087;-80
2021/08/27 06:17:04;;;;;;;38.90;33.70;;;;;;;20.88;78.48;100504.33;1780822;80;20845;-79
2021/08/27 06:19:31;;;;;;;38.85;34.70;;;;;;;20.84;78.15;100508.81;1780746;80;20872;-79
2021/08/27 06:21:58;;;;;;;39.40;33.18;;;;;;;20.80;78.42;100514.13;1780669;79;20923;-79
2021/08/27 06:24:25;;;;;;;40.38;34.88;;;;;;;20.77;78.71;100516.62;1780423;80;20884;-77
2021/08/27 06:26:53;;;;;;;39.75;35.45;;;;;;;20.75;78.98;100523.94;1786223;79;21138;-75
2021/08/27 06:29:20;;;;;;;36.55;32.67;;;;;;;20.74;78.97;100528.09;1786377;79;21386;-76
2021/08/27 06:31:46;;;;;;;38.67;34.67;;;;;;;20.73;78.87;100517.11;1786534;79;20970;-75
2021/08/27 06:34:13;;;;;;;40.43;35.38;;;;;;;20.71;79.12;100522.59;1786506;80;20860;-75
2021/08/27 06:39:24;;;;;;;38.85;34.13;;;;;;;20.75;79.23;100521.78;1798508;79;22472;-75
2021/08/27 06:41:52;;;;;;;39.55;34.83;;;;;;;20.66;79.31;100526.23;1758356;81;20864;-75
2021/08/27 06:44:19;;;;;;;41.18;35.52;;;;;;;20.65;79.32;100522.75;1758278;80;22015;-73
2021/08/27 06:46:48;;;;;;;40.55;36.30;;;;;;;20.66;79.46;100523.06;1758090;81;21049;-74
2021/08/27 06:49:14;;;;;;;39.40;35.13;;;;;;;20.67;79.46;100524.72;1758289;80;21508;-75
2021/08/27 06:51:42;;;;;;;40.03;35.05;;;;;;;20.68;79.45;100528.25;1758590;81;20913;-74
2021/08/27 06:54:09;;;;;;;37.95;33.85;;;;;;;20.70;79.35;100524.42;1758220;80;20928;-75
2021/08/27 06:56:36;;;;;;;39.13;34.85;;;;;;;20.73;79.47;100525.10;1758512;81;21054;-72
2021/08/27 06:59:04;;;;;;;38.35;34.30;;;;;;;20.76;79.60;100524.77;1758147;81;20876;-73
2021/08/27 07:01:31;;;;;;;38.98;34.60;;;;;;;20.79;79.48;100526.62;1758453;81;20916;-75
2021/08/27 07:03:58;;;;;;;39.98;35.70;;;;;;;20.84;79.46;100522.97;1758303;81;20885;-72
2021/08/27 07:06:25;;;;;;;38.58;33.73;;;;;;;20.87;79.18;100525.80;1758562;80;20928;-72
2021/08/27 07:08:51;;;;;;;37.30;33.50;;;;;;;20.90;78.92;100527.66;1758494;81;21111;-69
2021/08/27 07:11:18;;;;;;;39.10;35.15;;;;;;;20.95;78.47;100527.17;1759230;81;20967;-68
2021/08/27 07:13:45;;;;;;;38.92;34.70;;;;;;;20.96;78.14;100530.16;1758311;81;20928;-72
2021/08/27 07:16:13;;;;;;;40.55;35.95;;;;;;;21.00;77.96;100533.35;1758035;81;21402;-71
2021/08/27 07:18:42;;;;;;;43.60;36.95;;;;;;;20.99;77.98;100545.86;1758098;81;20881;-71
2021/08/27 07:21:09;;;;;;;39.33;35.03;;;;;;;21.00;77.95;100551.52;1758609;81;21503;-76
2021/08/27 07:23:36;;;;;;;40.78;36.42;;;;;;;20.98;77.59;100544.67;1759391;81;20920;-74
2021/08/27 07:26:03;;;;;;;40.15;35.55;;;;;;;20.98;77.44;100551.34;1758716;81;20869;-75
2021/08/27 07:28:30;;;;;;;39.83;35.73;;;;;;;20.97;77.56;100555.02;1758193;81;20989;-77
2021/08/27 07:30:57;;;;;;;43.95;36.50;;;;;;;20.97;77.79;100555.84;1758120;80;20968;-75
2021/08/27 07:33:24;;;;;;;41.37;37.10;;;;;;;20.97;77.75;100543.02;1758364;81;21747;-78
2021/08/27 07:35:51;;;;;;;36.13;32.30;;;;;;;20.99;77.97;100546.36;1758119;81;20971;-77
2021/08/27 07:38:18;;;;;;;38.20;34.25;;;;;;;21.05;77.75;100548.36;1758182;81;20924;-79
2021/08/27 07:40:45;;;;;;;39.95;35.08;;;;;;;21.10;77.52;100547.39;1758242;81;21655;-77
2021/08/27 07:43:13;;;;;;;38.67;34.20;;;;;;;21.16;77.21;100550.72;1758513;80;20882;-77
2021/08/27 07:45:41;;;;;;;40.65;36.30;;;;;;;21.21;76.73;100546.23;1758419;81;20881;-77
2021/08/27 07:48:09;;;;;;;40.52;36.13;;;;;;;21.27;76.70;100538.41;1758405;80;21479;-76
2021/08/27 07:50:36;;;;;;;37.67;33.60;;;;;;;21.32;76.53;100537.44;1757948;81;21066;-78
2021/08/27 07:53:03;;;;;;;41.88;34.83;;;;;;;21.40;76.23;100542.45;1757799;81;20904;-79
2021/08/27 07:55:30;;;;;;;38.25;34.10;;;;;;;21.43;76.16;100542.99;1757785;80;20837;-82
2021/08/27 07:57:57;;;;;;;39.83;35.63;;;;;;;21.49;76.18;100545.48;1757797;81;21753;-76
2021/08/27 08:00:24;;;;;;;39.70;33.63;;;;;;;21.57;76.18;100548.17;1757848;81;20888;-74
2021/08/27 08:02:51;;;;;;;37.98;33.18;;;;;;;21.65;76.23;100545.48;1757791;81;21462;-74
2021/08/27 08:05:18;;;;;;;39.55;35.13;;;;;;;21.75;76.49;100549.34;1758146;81;20936;-74
2021/08/27 08:07:45;;;;;;;41.00;34.65;;;;;;;21.81;76.22;100554.03;1757894;80;21426;-74
2021/08/27 08:10:13;;;;;;;43.42;36.00;;;;;;;21.87;75.51;100553.84;1757912;81;21107;-74
2021/08/27 08:12:40;;;;;;;48.55;35.38;;;;;;;21.96;74.92;100560.84;1757729;81;20928;-74
2021/08/27 08:15:08;;;;;;;48.42;37.38;;;;;;;22.07;74.31;100563.67;1757762;81;21340;-73
2021/08/27 08:17:35;;;;;;;40.25;33.30;;;;;;;22.24;73.97;100552.52;1757696;80;20936;-79
2021/08/27 08:20:03;;;;;;;40.58;34.25;;;;;;;22.45;73.54;100558.63;1758156;81;20880;-77
2021/08/27 08:22:32;;;;;;;49.03;33.88;;;;;;;22.70;72.63;100561.58;1757859;80;21147;-76
2021/08/27 08:24:59;;;;;;;40.50;34.30;;;;;;;22.93;71.82;100558.96;1758090;81;20916;-77
2021/08/27 08:27:26;;;;;;;39.45;34.70;;;;;;;23.14;70.80;100563.75;1757889;81;20863;-78
2021/08/27 08:29:53;;;;;;;45.12;37.00;;;;;;;23.31;69.80;100567.66;1758181;81;21453;-77
2021/08/27 08:32:20;;;;;;;43.68;36.53;;;;;;;23.46;69.65;100567.23;1757867;80;21015;-78
2021/08/27 08:34:47;;;;;;;41.83;36.73;;;;;;;23.62;69.60;100565.45;1757856;81;21088;-77
2021/08/27 08:37:14;;;;;;;45.67;33.28;;;;;;;23.89;69.09;100562.75;1757766;81;20920;-79
2021/08/27 08:39:41;;;;;;;38.55;32.55;;;;;;;24.19;68.44;100565.83;1746658;81;20940;-77
2021/08/27 08:42:08;;;;;;;41.63;36.80;;;;;;;24.45;67.10;100559.70;1744405;82;20969;-78
2021/08/27 08:44:35;;;;;;;43.13;36.68;;;;;;;24.57;66.58;100567.13;1744802;82;20936;-79
2021/08/27 08:47:03;;;;;;;39.78;33.40;;;;;;;24.66;65.60;100572.41;1744645;80;21149;-78
2021/08/27 08:49:31;;;;;;;37.63;33.60;;;;;;;24.89;65.41;100573.63;1744473;81;21374;-80
2021/08/27 08:51:58;;;;;;;37.55;33.70;;;;;;;25.06;64.66;100579.59;1744563;82;21007;-77
2021/08/27 08:54:25;;;;;;;35.35;31.75;;;;;;;25.56;63.65;100574.72;1744790;80;20932;-77
2021/08/27 08:56:51;;;;;;;37.85;32.67;;;;;;;25.95;62.13;100568.09;1744619;81;21470;-77
2021/08/27 08:59:18;;;;;;;35.08;31.25;;;;;;;26.20;60.78;100567.14;1744535;82;21131;-79
2021/08/27 09:01:45;;;;;;;33.50;30.00;;;;;;;26.37;59.97;100566.82;1744391;80;20846;-79
2021/08/27 09:04:12;;;;;;;33.05;29.15;;;;;;;26.65;59.41;100566.81;1744816;82;21407;-82
2021/08/27 09:06:40;;;;;;;29.65;26.70;;;;;;;26.81;59.21;100572.37;1744620;80;20881;-81
2021/08/27 09:09:07;;;;;;;26.87;24.20;;;;;;;26.94;57.83;100566.23;1744966;82;20888;-81
2021/08/27 09:11:33;;;;;;;28.90;25.95;;;;;;;27.00;57.12;100568.95;1744347;81;21531;-79
2021/08/27 09:14:03;;;;;;;26.10;23.57;;;;;;;27.12;56.61;100567.02;1744670;82;21422;-80
2021/08/27 09:16:34;;;;;;;25.00;22.35;;;;;;;27.29;56.53;100572.39;1744485;82;20960;-78
2021/08/27 09:19:01;;;;;;;25.32;22.93;;;;;;;27.48;55.35;100569.44;1744667;82;21399;-79
2021/08/27 09:21:45;;;;;;;25.02;22.70;;;;;;;27.90;54.66;100575.00;1744593;81;21137;-78
2021/08/27 09:24:25;;;;;;;21.40;19.30;;;;;;;28.07;54.43;100567.83;1744418;81;21150;-77
2021/08/27 09:26:58;;;;;;;21.75;19.77;;;;;;;28.19;53.30;100562.63;1744372;81;20881;-78
2021/08/27 09:29:41;;;;;;;20.68;18.52;;;;;;;28.14;52.78;100569.17;1744802;82;20905;-78
2021/08/27 09:32:27;;;;;;;20.12;18.23;;;;;;;28.01;53.39;100567.30;1744628;82;20987;-79
2021/08/27 09:35:15;;;;;;;20.32;18.32;;;;;;;27.81;53.65;100566.75;1744792;82;20984;-79
2021/08/27 09:37:46;;;;;;;19.80;18.10;;;;;;;27.75;52.96;100565.40;1744240;81;21150;-78
2021/08/27 09:40:26;;;;;;;20.27;18.48;;;;;;;27.74;53.82;100567.27;1743479;81;20959;-81
2021/08/27 09:42:53;;;;;;;20.80;18.98;;;;;;;27.69;52.96;100569.24;1744408;81;20976;-79
2021/08/27 09:45:44;;;;;;;22.13;19.92;;;;;;;27.66;52.92;100575.05;1744530;81;20984;-78
2021/08/27 09:48:13;;;;;;;21.23;19.20;;;;;;;27.59;53.00;100572.87;1744506;82;20949;-78
2021/08/27 09:50:46;;;;;;;18.75;17.05;;;;;;;27.69;53.08;100566.55;1744544;82;21175;-78
2021/08/27 09:53:13;;;;;;;18.90;17.20;;;;;;;27.95;52.33;100565.44;1744705;82;20889;-78
2021/08/27 09:56:00;;;;;;;19.92;18.10;;;;;;;28.09;52.20;100564.41;1745010;80;20906;-77
2021/08/27 09:58:27;;;;;;;18.67;17.17;;;;;;;28.35;51.70;100567.59;1744480;81;20964;-76
2021/08/27 10:01:06;;;;;;;21.20;19.20;;;;;;;28.51;52.02;100572.56;1745002;82;20865;-75
2021/08/27 10:03:35;;;;;;;22.27;20.23;;;;;;;28.76;51.96;100570.52;1744636;81;21153;-79
2021/08/27 10:06:03;;;;;;;23.55;21.37;;;;;;;28.86;51.88;100572.78;1744542;81;20921;-77
2021/08/27 10:08:36;;;;;;;22.95;20.70;;;;;;;29.10;51.34;100568.02;1744264;82;21469;-77
2021/08/27 10:11:25;;;;;;;24.72;22.37;;;;;;;29.36;50.32;100566.73;1744628;82;21516;-78
2021/08/27 10:13:51;;;;;;;23.42;21.27;;;;;;;29.64;49.78;100564.99;1743069;81;20940;-77
2021/08/27 10:16:18;;;;;;;22.70;20.50;;;;;;;29.87;48.69;100569.30;1744431;80;21152;-75
2021/08/27 10:18:45;;;;;;;23.70;21.42;;;;;;;29.87;48.88;100570.64;1744313;82;20917;-75
2021/08/27 10:21:13;;;;;;;25.50;22.93;;;;;;;29.85;48.74;100574.09;1744490;82;20960;-76
2021/08/27 10:23:40;;;;;;;24.12;22.00;;;;;;;29.77;49.08;100577.59;1744325;80;21292;-74
2021/08/27 10:26:13;;;;;;;25.65;23.40;;;;;;;29.62;49.17;100569.79;1744403;81;20854;-73
2021/08/27 10:28:41;;;;;;;24.60;22.42;;;;;;;29.52;49.51;100568.90;1744425;82;21832;-75
2021/08/27 10:31:09;;;;;;;23.42;21.42;;;;;;;29.58;49.22;100568.56;1744295;82;20988;-74
2021/08/27 10:33:44;;;;;;;25.60;23.40;;;;;;;29.65;48.91;100565.28;1744597;80;20896;-75
2021/08/27 10:36:26;;;;;;;22.80;20.77;;;;;;;29.81;48.68;100574.22;1744581;82;21003;-75
2021/08/27 10:38:54;;;;;;;22.30;20.20;;;;;;;30.12;48.67;100569.27;1736013;81;21422;-74
2021/08/27 10:41:36;;;;;;;21.52;19.50;;;;;;;30.48;47.87;100577.19;1757688;81;21441;-73
2021/08/27 10:44:12;;;;;;;22.10;20.12;;;;;;;30.62;46.94;100577.05;1757919;81;20905;-73
2021/08/27 10:46:51;;;;;;;20.92;19.15;;;;;;;30.55;46.52;100583.36;1757593;81;20948;-75
2021/08/27 10:49:41;;;;;;;20.60;18.80;;;;;;;30.41;46.38;100580.47;1758025;81;20967;-74
2021/08/27 10:52:28;;;;;;;22.27;20.30;;;;;;;30.23;47.21;100580.42;1739210;81;20936;-75
2021/08/27 10:55:11;;;;;;;21.23;19.32;;;;;;;30.07;47.68;100583.17;1758000;81;21109;-77
2021/08/27 10:57:50;;;;;;;24.02;21.95;;;;;;;29.91;47.74;100585.91;1757830;81;20928;-74
2021/08/27 11:00:39;;;;;;;22.35;20.32;;;;;;;29.84;48.35;100585.97;1757998;81;20928;-75
2021/08/27 11:03:07;;;;;;;22.45;20.37;;;;;;;29.75;48.40;100589.47;1757537;81;20948;-74
2021/08/27 11:05:47;;;;;;;22.05;19.87;;;;;;;29.56;48.77;100586.34;1757881;81;20888;-75
2021/08/27 11:08:31;;;;;;;22.37;20.32;;;;;;;29.33;48.83;100584.20;1756022;81;22210;-76
2021/08/27 11:11:20;;;;;;;22.07;20.17;;;;;;;29.05;49.31;100585.34;1757863;81;21474;-75
2021/08/27 11:13:48;;;;;;;20.88;18.82;;;;;;;28.86;49.77;100583.05;1757741;81;20909;-75
2021/08/27 11:16:23;;;;;;;20.55;18.60;;;;;;;28.71;49.86;100593.27;1740579;81;20991;-74
2021/08/27 11:18:52;;;;;;;20.35;18.57;;;;;;;28.53;50.66;100589.89;1757786;80;21481;-75
2021/08/27 11:21:31;;;;;;;21.75;19.82;;;;;;;28.30;50.89;100586.25;1758121;81;21096;-74
2021/08/27 11:24:18;;;;;;;20.97;18.98;;;;;;;28.16;51.03;100583.28;1757737;81;20841;-74
2021/08/27 11:27:02;;;;;;;23.10;20.92;;;;;;;28.09;51.70;100584.11;1758197;80;20944;-74